sensor_id;sensor_type;location;lat;lon;timestamp;P1;durP1;ratioP1;P2;durP2;ratioP2
70342;SDS011;57767;42.068;24.752;2023-12-29T00:00:42;20.88;;;14.20;;
70342;SDS011;57767;42.068;24.752;2023-12-29T00:01:43;24.63;;;14.45;;
70342;SDS011;57767;42.068;24.752;2023-12-29T00:02:45;22.42;;;12.88;;
70342;SDS011;57767;42.068;24.752;2023-12-29T00:03:47;19.23;;;11.82;;
70342;SDS011;57767;42.068;24.752;2023-12-29T00:04:49;15.82;;;10.73;;
70342;SDS011;57767;42.068;24.752;2023-12-29T00:05:50;16.10;;;11.05;;
70342;SDS011;57767;42.068;24.752;2023-12-29T00:06:52;17.20;;;11.77;;
70342;SDS011;57767;42.068;24.752;2023-12-29T00:08:03;16.85;;;11.88;;
70342;SDS011;57767;42.068;24.752;2023-12-29T00:09:05;20.80;;;12.15;;
70342;SDS011;57767;42.068;24.752;2023-12-29T00:10:07;18.83;;;11.75;;
70342;SDS011;57767;42.068;24.752;2023-12-29T00:11:16;16.38;;;10.18;;
70342;SDS011;57767;42.068;24.752;2023-12-29T00:14:25;19.42;;;12.05;;
70342;SDS011;57767;42.068;24.752;2023-12-29T00:15:27;19.38;;;11.05;;
70342;SDS011;57767;42.068;24.752;2023-12-29T00:16:29;13.43;;;10.02;;
70342;SDS011;57767;42.068;24.752;2023-12-29T00:17:31;14.52;;;10.45;;
70342;SDS011;57767;42.068;24.752;2023-12-29T00:18:33;13.70;;;9.95;;
70342;SDS011;57767;42.068;24.752;2023-12-29T00:19:35;15.48;;;10.43;;
70342;SDS011;57767;42.068;24.752;2023-12-29T00:20:37;16.77;;;11.18;;
70342;SDS011;57767;42.068;24.752;2023-12-29T00:21:42;15.52;;;9.82;;
70342;SDS011;57767;42.068;24.752;2023-12-29T00:22:44;15.77;;;9.57;;
70342;SDS011;57767;42.068;24.752;2023-12-29T00:23:45;13.43;;;9.48;;
70342;SDS011;57767;42.068;24.752;2023-12-29T00:24:47;16.92;;;10.10;;
70342;SDS011;57767;42.068;24.752;2023-12-29T00:25:49;16.25;;;9.85;;
70342;SDS011;57767;42.068;24.752;2023-12-29T00:26:50;15.88;;;9.55;;
70342;SDS011;57767;42.068;24.752;2023-12-29T00:27:52;14.63;;;9.75;;
70342;SDS011;57767;42.068;24.752;2023-12-29T00:28:54;14.43;;;9.35;;
70342;SDS011;57767;42.068;24.752;2023-12-29T00:29:55;15.27;;;9.55;;
70342;SDS011;57767;42.068;24.752;2023-12-29T00:30:57;14.85;;;9.63;;
70342;SDS011;57767;42.068;24.752;2023-12-29T00:32:03;11.88;;;8.57;;
70342;SDS011;57767;42.068;24.752;2023-12-29T00:33:06;9.75;;;8.13;;
70342;SDS011;57767;42.068;24.752;2023-12-29T00:34:08;14.75;;;8.70;;
70342;SDS011;57767;42.068;24.752;2023-12-29T00:35:10;11.43;;;8.30;;
70342;SDS011;57767;42.068;24.752;2023-12-29T00:36:15;11.85;;;8.23;;
70342;SDS011;57767;42.068;24.752;2023-12-29T00:37:17;11.65;;;8.50;;
70342;SDS011;57767;42.068;24.752;2023-12-29T00:38:19;11.32;;;8.35;;
70342;SDS011;57767;42.068;24.752;2023-12-29T00:39:20;11.63;;;8.15;;
70342;SDS011;57767;42.068;24.752;2023-12-29T00:40:29;11.23;;;8.00;;
70342;SDS011;57767;42.068;24.752;2023-12-29T00:41:31;10.70;;;8.40;;
70342;SDS011;57767;42.068;24.752;2023-12-29T00:42:33;11.43;;;7.68;;
70342;SDS011;57767;42.068;24.752;2023-12-29T00:43:35;11.48;;;8.05;;
70342;SDS011;57767;42.068;24.752;2023-12-29T00:44:37;12.48;;;8.25;;
70342;SDS011;57767;42.068;24.752;2023-12-29T00:45:39;12.27;;;8.23;;
70342;SDS011;57767;42.068;24.752;2023-12-29T00:46:40;11.45;;;8.02;;
70342;SDS011;57767;42.068;24.752;2023-12-29T00:47:42;12.38;;;8.15;;
70342;SDS011;57767;42.068;24.752;2023-12-29T00:48:44;11.70;;;7.50;;
70342;SDS011;57767;42.068;24.752;2023-12-29T00:49:46;10.90;;;7.53;;
70342;SDS011;57767;42.068;24.752;2023-12-29T00:50:48;12.82;;;7.60;;
70342;SDS011;57767;42.068;24.752;2023-12-29T00:51:49;10.52;;;7.22;;
70342;SDS011;57767;42.068;24.752;2023-12-29T00:52:51;10.38;;;6.97;;
70342;SDS011;57767;42.068;24.752;2023-12-29T00:53:53;9.85;;;7.07;;
70342;SDS011;57767;42.068;24.752;2023-12-29T00:54:54;13.10;;;7.60;;
70342;SDS011;57767;42.068;24.752;2023-12-29T00:55:56;11.75;;;7.78;;
70342;SDS011;57767;42.068;24.752;2023-12-29T00:56:58;14.95;;;8.52;;
70342;SDS011;57767;42.068;24.752;2023-12-29T00:57:59;12.02;;;7.60;;
70342;SDS011;57767;42.068;24.752;2023-12-29T00:59:01;11.30;;;8.23;;
70342;SDS011;57767;42.068;24.752;2023-12-29T01:00:03;12.02;;;7.70;;
70342;SDS011;57767;42.068;24.752;2023-12-29T01:01:07;11.43;;;7.88;;
70342;SDS011;57767;42.068;24.752;2023-12-29T01:02:13;10.38;;;7.85;;
70342;SDS011;57767;42.068;24.752;2023-12-29T01:03:14;15.75;;;8.98;;
70342;SDS011;57767;42.068;24.752;2023-12-29T01:04:16;13.13;;;9.25;;
70342;SDS011;57767;42.068;24.752;2023-12-29T01:05:18;13.52;;;8.18;;
70342;SDS011;57767;42.068;24.752;2023-12-29T01:06:20;10.45;;;8.13;;
70342;SDS011;57767;42.068;24.752;2023-12-29T01:07:22;12.68;;;7.60;;
70342;SDS011;57767;42.068;24.752;2023-12-29T01:08:23;12.77;;;8.23;;
70342;SDS011;57767;42.068;24.752;2023-12-29T01:09:26;11.68;;;8.27;;
70342;SDS011;57767;42.068;24.752;2023-12-29T01:10:27;11.40;;;7.32;;
70342;SDS011;57767;42.068;24.752;2023-12-29T01:11:29;8.35;;;6.57;;
70342;SDS011;57767;42.068;24.752;2023-12-29T01:12:30;12.10;;;8.40;;
70342;SDS011;57767;42.068;24.752;2023-12-29T01:13:32;9.65;;;7.03;;
70342;SDS011;57767;42.068;24.752;2023-12-29T01:14:34;11.20;;;8.05;;
70342;SDS011;57767;42.068;24.752;2023-12-29T01:15:36;9.90;;;7.00;;
70342;SDS011;57767;42.068;24.752;2023-12-29T01:16:38;9.65;;;7.45;;
70342;SDS011;57767;42.068;24.752;2023-12-29T01:17:39;11.98;;;7.18;;
70342;SDS011;57767;42.068;24.752;2023-12-29T01:18:41;12.45;;;7.95;;
70342;SDS011;57767;42.068;24.752;2023-12-29T01:19:43;8.98;;;6.80;;
70342;SDS011;57767;42.068;24.752;2023-12-29T01:20:44;8.85;;;7.22;;
70342;SDS011;57767;42.068;24.752;2023-12-29T01:21:46;9.38;;;6.95;;
70342;SDS011;57767;42.068;24.752;2023-12-29T01:22:48;9.40;;;7.72;;
70342;SDS011;57767;42.068;24.752;2023-12-29T01:23:49;9.82;;;6.80;;
70342;SDS011;57767;42.068;24.752;2023-12-29T01:24:51;10.90;;;7.60;;
70342;SDS011;57767;42.068;24.752;2023-12-29T01:25:52;11.98;;;8.02;;
70342;SDS011;57767;42.068;24.752;2023-12-29T01:26:54;13.90;;;8.07;;
70342;SDS011;57767;42.068;24.752;2023-12-29T01:27:57;11.38;;;7.72;;
70342;SDS011;57767;42.068;24.752;2023-12-29T01:28:58;10.48;;;7.68;;
70342;SDS011;57767;42.068;24.752;2023-12-29T01:30:02;10.13;;;7.03;;
70342;SDS011;57767;42.068;24.752;2023-12-29T01:31:04;9.60;;;7.72;;
70342;SDS011;57767;42.068;24.752;2023-12-29T01:32:06;9.32;;;7.28;;
70342;SDS011;57767;42.068;24.752;2023-12-29T01:33:09;9.63;;;7.32;;
70342;SDS011;57767;42.068;24.752;2023-12-29T01:34:11;11.70;;;7.85;;
70342;SDS011;57767;42.068;24.752;2023-12-29T01:35:12;9.75;;;7.05;;
70342;SDS011;57767;42.068;24.752;2023-12-29T01:36:17;11.65;;;8.15;;
70342;SDS011;57767;42.068;24.752;2023-12-29T01:37:25;13.95;;;9.05;;
70342;SDS011;57767;42.068;24.752;2023-12-29T01:38:27;15.93;;;8.45;;
70342;SDS011;57767;42.068;24.752;2023-12-29T01:39:29;14.07;;;9.10;;
70342;SDS011;57767;42.068;24.752;2023-12-29T01:40:31;14.10;;;9.23;;
70342;SDS011;57767;42.068;24.752;2023-12-29T01:41:33;14.30;;;9.02;;
70342;SDS011;57767;42.068;24.752;2023-12-29T01:42:34;14.90;;;9.25;;
70342;SDS011;57767;42.068;24.752;2023-12-29T01:43:36;19.42;;;10.65;;
70342;SDS011;57767;42.068;24.752;2023-12-29T01:44:58;21.65;;;11.35;;
70342;SDS011;57767;42.068;24.752;2023-12-29T01:45:59;19.67;;;10.95;;
70342;SDS011;57767;42.068;24.752;2023-12-29T01:47:01;18.83;;;11.30;;
70342;SDS011;57767;42.068;24.752;2023-12-29T01:48:06;19.95;;;11.60;;
70342;SDS011;57767;42.068;24.752;2023-12-29T01:49:10;18.27;;;10.85;;
70342;SDS011;57767;42.068;24.752;2023-12-29T01:50:11;19.88;;;11.35;;
70342;SDS011;57767;42.068;24.752;2023-12-29T01:51:13;17.35;;;10.43;;
70342;SDS011;57767;42.068;24.752;2023-12-29T01:52:17;16.70;;;10.63;;
70342;SDS011;57767;42.068;24.752;2023-12-29T01:53:19;17.38;;;10.30;;
70342;SDS011;57767;42.068;24.752;2023-12-29T01:54:34;18.42;;;11.57;;
70342;SDS011;57767;42.068;24.752;2023-12-29T01:55:39;19.58;;;10.98;;
70342;SDS011;57767;42.068;24.752;2023-12-29T01:56:42;17.52;;;11.10;;
70342;SDS011;57767;42.068;24.752;2023-12-29T01:57:44;17.50;;;11.02;;
70342;SDS011;57767;42.068;24.752;2023-12-29T01:58:48;18.75;;;10.55;;
70342;SDS011;57767;42.068;24.752;2023-12-29T01:59:50;20.20;;;12.23;;
70342;SDS011;57767;42.068;24.752;2023-12-29T02:00:52;17.58;;;11.13;;
70342;SDS011;57767;42.068;24.752;2023-12-29T02:01:54;17.98;;;11.63;;
70342;SDS011;57767;42.068;24.752;2023-12-29T02:02:59;17.75;;;11.75;;
70342;SDS011;57767;42.068;24.752;2023-12-29T02:04:01;18.58;;;11.68;;
70342;SDS011;57767;42.068;24.752;2023-12-29T02:05:03;18.10;;;12.07;;
70342;SDS011;57767;42.068;24.752;2023-12-29T02:06:06;15.68;;;11.35;;
70342;SDS011;57767;42.068;24.752;2023-12-29T02:07:08;18.45;;;11.35;;
70342;SDS011;57767;42.068;24.752;2023-12-29T02:08:09;17.35;;;11.48;;
70342;SDS011;57767;42.068;24.752;2023-12-29T02:09:12;16.08;;;11.55;;
70342;SDS011;57767;42.068;24.752;2023-12-29T02:10:14;18.35;;;11.88;;
70342;SDS011;57767;42.068;24.752;2023-12-29T02:11:17;19.50;;;12.07;;
70342;SDS011;57767;42.068;24.752;2023-12-29T02:12:19;23.30;;;13.80;;
70342;SDS011;57767;42.068;24.752;2023-12-29T02:13:21;24.65;;;13.43;;
70342;SDS011;57767;42.068;24.752;2023-12-29T02:14:23;25.67;;;13.73;;
70342;SDS011;57767;42.068;24.752;2023-12-29T02:15:25;24.70;;;14.20;;
70342;SDS011;57767;42.068;24.752;2023-12-29T02:18:08;18.58;;;12.10;;
70342;SDS011;57767;42.068;24.752;2023-12-29T02:20:33;17.45;;;12.10;;
70342;SDS011;57767;42.068;24.752;2023-12-29T02:21:35;19.95;;;12.32;;
70342;SDS011;57767;42.068;24.752;2023-12-29T02:22:37;18.42;;;11.38;;
70342;SDS011;57767;42.068;24.752;2023-12-29T02:23:38;19.10;;;10.85;;
70342;SDS011;57767;42.068;24.752;2023-12-29T02:24:44;20.52;;;12.40;;
70342;SDS011;57767;42.068;24.752;2023-12-29T02:25:50;15.75;;;11.77;;
70342;SDS011;57767;42.068;24.752;2023-12-29T02:28:41;16.15;;;11.27;;
70342;SDS011;57767;42.068;24.752;2023-12-29T02:29:56;17.55;;;10.95;;
70342;SDS011;57767;42.068;24.752;2023-12-29T02:31:06;17.23;;;11.32;;
70342;SDS011;57767;42.068;24.752;2023-12-29T02:32:11;15.45;;;11.48;;
70342;SDS011;57767;42.068;24.752;2023-12-29T02:33:21;15.95;;;11.15;;
70342;SDS011;57767;42.068;24.752;2023-12-29T02:34:24;17.50;;;11.63;;
70342;SDS011;57767;42.068;24.752;2023-12-29T02:35:27;16.20;;;12.82;;
70342;SDS011;57767;42.068;24.752;2023-12-29T02:36:33;18.75;;;13.70;;
70342;SDS011;57767;42.068;24.752;2023-12-29T02:37:44;17.23;;;13.05;;
70342;SDS011;57767;42.068;24.752;2023-12-29T02:38:46;15.10;;;11.73;;
70342;SDS011;57767;42.068;24.752;2023-12-29T02:39:48;15.73;;;12.02;;
70342;SDS011;57767;42.068;24.752;2023-12-29T02:40:50;16.75;;;11.25;;
70342;SDS011;57767;42.068;24.752;2023-12-29T02:41:51;14.32;;;10.70;;
70342;SDS011;57767;42.068;24.752;2023-12-29T02:42:53;15.43;;;11.27;;
70342;SDS011;57767;42.068;24.752;2023-12-29T02:43:55;15.32;;;11.27;;
70342;SDS011;57767;42.068;24.752;2023-12-29T02:44:56;15.63;;;11.60;;
70342;SDS011;57767;42.068;24.752;2023-12-29T02:45:58;16.95;;;11.88;;
70342;SDS011;57767;42.068;24.752;2023-12-29T02:47:00;15.77;;;10.80;;
70342;SDS011;57767;42.068;24.752;2023-12-29T02:48:01;16.27;;;11.00;;
70342;SDS011;57767;42.068;24.752;2023-12-29T02:49:04;16.17;;;11.45;;
70342;SDS011;57767;42.068;24.752;2023-12-29T02:50:05;16.27;;;11.80;;
70342;SDS011;57767;42.068;24.752;2023-12-29T02:51:09;15.02;;;11.25;;
70342;SDS011;57767;42.068;24.752;2023-12-29T02:52:10;19.50;;;12.15;;
70342;SDS011;57767;42.068;24.752;2023-12-29T02:53:12;15.35;;;10.45;;
70342;SDS011;57767;42.068;24.752;2023-12-29T02:54:14;13.27;;;9.90;;
70342;SDS011;57767;42.068;24.752;2023-12-29T02:55:15;14.13;;;9.95;;
70342;SDS011;57767;42.068;24.752;2023-12-29T02:56:17;12.65;;;9.20;;
70342;SDS011;57767;42.068;24.752;2023-12-29T02:57:19;13.57;;;9.80;;
70342;SDS011;57767;42.068;24.752;2023-12-29T02:58:20;10.90;;;9.00;;
70342;SDS011;57767;42.068;24.752;2023-12-29T02:59:22;12.18;;;8.77;;
70342;SDS011;57767;42.068;24.752;2023-12-29T03:00:24;11.93;;;8.80;;
70342;SDS011;57767;42.068;24.752;2023-12-29T03:01:26;15.15;;;9.35;;
70342;SDS011;57767;42.068;24.752;2023-12-29T03:02:30;12.48;;;8.93;;
70342;SDS011;57767;42.068;24.752;2023-12-29T03:03:32;13.95;;;9.00;;
70342;SDS011;57767;42.068;24.752;2023-12-29T03:04:33;17.38;;;9.27;;
70342;SDS011;57767;42.068;24.752;2023-12-29T03:05:35;15.02;;;10.25;;
70342;SDS011;57767;42.068;24.752;2023-12-29T03:06:37;15.02;;;9.32;;
70342;SDS011;57767;42.068;24.752;2023-12-29T03:07:38;16.40;;;10.25;;
70342;SDS011;57767;42.068;24.752;2023-12-29T03:08:41;15.15;;;9.48;;
70342;SDS011;57767;42.068;24.752;2023-12-29T03:09:43;15.05;;;9.65;;
70342;SDS011;57767;42.068;24.752;2023-12-29T03:10:45;14.82;;;9.82;;
70342;SDS011;57767;42.068;24.752;2023-12-29T03:11:47;16.42;;;10.10;;
70342;SDS011;57767;42.068;24.752;2023-12-29T03:12:48;15.25;;;9.95;;
70342;SDS011;57767;42.068;24.752;2023-12-29T03:13:50;16.00;;;10.00;;
70342;SDS011;57767;42.068;24.752;2023-12-29T03:14:52;16.05;;;10.93;;
70342;SDS011;57767;42.068;24.752;2023-12-29T03:15:53;14.90;;;10.65;;
70342;SDS011;57767;42.068;24.752;2023-12-29T03:16:55;16.33;;;10.40;;
70342;SDS011;57767;42.068;24.752;2023-12-29T03:17:57;16.25;;;10.18;;
70342;SDS011;57767;42.068;24.752;2023-12-29T03:18:59;13.75;;;10.23;;
70342;SDS011;57767;42.068;24.752;2023-12-29T03:20:01;15.63;;;10.07;;
70342;SDS011;57767;42.068;24.752;2023-12-29T03:21:04;12.75;;;9.07;;
70342;SDS011;57767;42.068;24.752;2023-12-29T03:22:06;14.68;;;10.13;;
70342;SDS011;57767;42.068;24.752;2023-12-29T03:23:08;11.75;;;9.18;;
70342;SDS011;57767;42.068;24.752;2023-12-29T03:24:10;14.10;;;9.85;;
70342;SDS011;57767;42.068;24.752;2023-12-29T03:25:11;12.38;;;8.70;;
70342;SDS011;57767;42.068;24.752;2023-12-29T03:26:13;12.18;;;8.15;;
70342;SDS011;57767;42.068;24.752;2023-12-29T03:27:15;10.43;;;8.13;;
70342;SDS011;57767;42.068;24.752;2023-12-29T03:28:17;12.80;;;7.95;;
70342;SDS011;57767;42.068;24.752;2023-12-29T03:29:19;11.30;;;8.23;;
70342;SDS011;57767;42.068;24.752;2023-12-29T03:30:21;10.63;;;8.05;;
70342;SDS011;57767;42.068;24.752;2023-12-29T03:31:22;13.13;;;7.90;;
70342;SDS011;57767;42.068;24.752;2023-12-29T03:32:24;11.73;;;8.77;;
70342;SDS011;57767;42.068;24.752;2023-12-29T03:33:26;11.60;;;8.85;;
70342;SDS011;57767;42.068;24.752;2023-12-29T03:34:28;11.35;;;8.50;;
70342;SDS011;57767;42.068;24.752;2023-12-29T03:35:29;12.52;;;9.15;;
70342;SDS011;57767;42.068;24.752;2023-12-29T03:36:31;12.95;;;8.95;;
70342;SDS011;57767;42.068;24.752;2023-12-29T03:37:33;12.32;;;8.07;;
70342;SDS011;57767;42.068;24.752;2023-12-29T03:38:35;12.88;;;8.70;;
70342;SDS011;57767;42.068;24.752;2023-12-29T03:39:37;15.70;;;10.88;;
70342;SDS011;57767;42.068;24.752;2023-12-29T03:40:39;12.32;;;9.23;;
70342;SDS011;57767;42.068;24.752;2023-12-29T03:41:40;17.95;;;11.18;;
70342;SDS011;57767;42.068;24.752;2023-12-29T03:42:42;17.50;;;11.55;;
70342;SDS011;57767;42.068;24.752;2023-12-29T03:43:44;21.05;;;12.40;;
70342;SDS011;57767;42.068;24.752;2023-12-29T03:44:46;19.45;;;12.45;;
70342;SDS011;57767;42.068;24.752;2023-12-29T03:45:47;22.73;;;13.00;;
70342;SDS011;57767;42.068;24.752;2023-12-29T03:46:49;18.85;;;11.70;;
70342;SDS011;57767;42.068;24.752;2023-12-29T03:47:51;20.33;;;11.02;;
70342;SDS011;57767;42.068;24.752;2023-12-29T03:48:53;16.48;;;11.18;;
70342;SDS011;57767;42.068;24.752;2023-12-29T03:49:54;16.65;;;11.23;;
70342;SDS011;57767;42.068;24.752;2023-12-29T03:50:56;17.63;;;10.93;;
70342;SDS011;57767;42.068;24.752;2023-12-29T03:51:58;14.65;;;9.98;;
70342;SDS011;57767;42.068;24.752;2023-12-29T03:53:00;17.33;;;9.27;;
70342;SDS011;57767;42.068;24.752;2023-12-29T03:54:01;15.95;;;9.90;;
70342;SDS011;57767;42.068;24.752;2023-12-29T03:55:03;14.70;;;9.98;;
70342;SDS011;57767;42.068;24.752;2023-12-29T03:56:08;16.85;;;10.45;;
70342;SDS011;57767;42.068;24.752;2023-12-29T03:57:20;16.38;;;9.93;;
70342;SDS011;57767;42.068;24.752;2023-12-29T03:58:21;14.52;;;9.10;;
70342;SDS011;57767;42.068;24.752;2023-12-29T03:59:23;13.32;;;8.93;;
70342;SDS011;57767;42.068;24.752;2023-12-29T04:00:25;13.13;;;8.18;;
70342;SDS011;57767;42.068;24.752;2023-12-29T04:01:26;15.63;;;8.63;;
70342;SDS011;57767;42.068;24.752;2023-12-29T04:02:30;12.82;;;8.38;;
70342;SDS011;57767;42.068;24.752;2023-12-29T04:03:31;12.57;;;8.35;;
70342;SDS011;57767;42.068;24.752;2023-12-29T04:04:36;11.55;;;8.27;;
70342;SDS011;57767;42.068;24.752;2023-12-29T04:05:39;15.18;;;8.18;;
70342;SDS011;57767;42.068;24.752;2023-12-29T04:06:40;12.52;;;8.40;;
70342;SDS011;57767;42.068;24.752;2023-12-29T04:07:42;13.65;;;8.05;;
70342;SDS011;57767;42.068;24.752;2023-12-29T04:08:44;12.68;;;8.75;;
70342;SDS011;57767;42.068;24.752;2023-12-29T04:09:46;15.35;;;9.15;;
70342;SDS011;57767;42.068;24.752;2023-12-29T04:10:47;11.57;;;6.97;;
70342;SDS011;57767;42.068;24.752;2023-12-29T04:11:49;10.95;;;6.63;;
70342;SDS011;57767;42.068;24.752;2023-12-29T04:12:50;8.02;;;4.75;;
70342;SDS011;57767;42.068;24.752;2023-12-29T04:13:52;5.85;;;4.07;;
70342;SDS011;57767;42.068;24.752;2023-12-29T04:14:54;6.90;;;5.22;;
70342;SDS011;57767;42.068;24.752;2023-12-29T04:15:55;9.77;;;5.78;;
70342;SDS011;57767;42.068;24.752;2023-12-29T04:16:57;6.53;;;4.90;;
70342;SDS011;57767;42.068;24.752;2023-12-29T04:18:00;5.55;;;4.13;;
70342;SDS011;57767;42.068;24.752;2023-12-29T04:19:02;6.25;;;4.35;;
70342;SDS011;57767;42.068;24.752;2023-12-29T04:20:04;5.55;;;3.78;;
70342;SDS011;57767;42.068;24.752;2023-12-29T04:21:06;6.50;;;4.38;;
70342;SDS011;57767;42.068;24.752;2023-12-29T04:22:10;5.38;;;4.13;;
70342;SDS011;57767;42.068;24.752;2023-12-29T04:23:11;7.82;;;4.90;;
70342;SDS011;57767;42.068;24.752;2023-12-29T04:24:13;7.43;;;4.82;;
70342;SDS011;57767;42.068;24.752;2023-12-29T04:25:15;7.40;;;5.07;;
70342;SDS011;57767;42.068;24.752;2023-12-29T04:26:17;7.00;;;4.85;;
70342;SDS011;57767;42.068;24.752;2023-12-29T04:27:18;8.55;;;5.22;;
70342;SDS011;57767;42.068;24.752;2023-12-29T04:28:20;9.02;;;5.70;;
70342;SDS011;57767;42.068;24.752;2023-12-29T04:29:22;9.27;;;6.22;;
70342;SDS011;57767;42.068;24.752;2023-12-29T04:30:23;10.70;;;6.88;;
70342;SDS011;57767;42.068;24.752;2023-12-29T04:31:25;10.80;;;7.20;;
70342;SDS011;57767;42.068;24.752;2023-12-29T04:32:26;11.98;;;6.90;;
70342;SDS011;57767;42.068;24.752;2023-12-29T04:33:28;11.10;;;6.78;;
70342;SDS011;57767;42.068;24.752;2023-12-29T04:34:30;8.30;;;6.53;;
70342;SDS011;57767;42.068;24.752;2023-12-29T04:35:31;8.57;;;6.38;;
70342;SDS011;57767;42.068;24.752;2023-12-29T04:36:33;10.68;;;7.03;;
70342;SDS011;57767;42.068;24.752;2023-12-29T04:37:35;11.82;;;7.68;;
70342;SDS011;57767;42.068;24.752;2023-12-29T04:38:36;10.15;;;7.18;;
70342;SDS011;57767;42.068;24.752;2023-12-29T04:39:38;13.60;;;7.50;;
70342;SDS011;57767;42.068;24.752;2023-12-29T04:40:40;8.43;;;6.68;;
70342;SDS011;57767;42.068;24.752;2023-12-29T04:41:41;8.30;;;6.47;;
70342;SDS011;57767;42.068;24.752;2023-12-29T04:42:43;10.75;;;7.13;;
70342;SDS011;57767;42.068;24.752;2023-12-29T04:43:45;9.90;;;7.00;;
70342;SDS011;57767;42.068;24.752;2023-12-29T04:44:46;10.20;;;7.35;;
70342;SDS011;57767;42.068;24.752;2023-12-29T04:45:48;11.82;;;7.78;;
70342;SDS011;57767;42.068;24.752;2023-12-29T04:46:50;12.30;;;7.72;;
70342;SDS011;57767;42.068;24.752;2023-12-29T04:47:51;9.95;;;7.45;;
70342;SDS011;57767;42.068;24.752;2023-12-29T04:48:53;12.75;;;8.02;;
70342;SDS011;57767;42.068;24.752;2023-12-29T04:49:55;11.45;;;7.75;;
70342;SDS011;57767;42.068;24.752;2023-12-29T04:50:57;14.35;;;8.45;;
70342;SDS011;57767;42.068;24.752;2023-12-29T04:51:58;10.05;;;7.63;;
70342;SDS011;57767;42.068;24.752;2023-12-29T04:53:00;12.73;;;9.07;;
70342;SDS011;57767;42.068;24.752;2023-12-29T04:54:02;14.10;;;9.27;;
70342;SDS011;57767;42.068;24.752;2023-12-29T04:55:04;14.32;;;9.23;;
70342;SDS011;57767;42.068;24.752;2023-12-29T04:56:05;16.95;;;9.82;;
70342;SDS011;57767;42.068;24.752;2023-12-29T04:57:07;14.90;;;10.88;;
70342;SDS011;57767;42.068;24.752;2023-12-29T04:58:09;15.02;;;10.20;;
70342;SDS011;57767;42.068;24.752;2023-12-29T04:59:10;16.60;;;10.75;;
70342;SDS011;57767;42.068;24.752;2023-12-29T05:00:12;13.23;;;10.30;;
70342;SDS011;57767;42.068;24.752;2023-12-29T05:01:14;14.48;;;10.73;;
70342;SDS011;57767;42.068;24.752;2023-12-29T05:02:16;14.32;;;10.02;;
70342;SDS011;57767;42.068;24.752;2023-12-29T05:03:19;15.40;;;10.98;;
70342;SDS011;57767;42.068;24.752;2023-12-29T05:04:20;16.20;;;11.50;;
70342;SDS011;57767;42.068;24.752;2023-12-29T05:05:22;19.50;;;13.57;;
70342;SDS011;57767;42.068;24.752;2023-12-29T05:06:24;18.60;;;13.07;;
70342;SDS011;57767;42.068;24.752;2023-12-29T05:07:26;17.95;;;12.60;;
70342;SDS011;57767;42.068;24.752;2023-12-29T05:08:28;13.80;;;10.90;;
70342;SDS011;57767;42.068;24.752;2023-12-29T05:09:29;15.85;;;11.57;;
70342;SDS011;57767;42.068;24.752;2023-12-29T05:10:31;15.20;;;11.15;;
70342;SDS011;57767;42.068;24.752;2023-12-29T05:11:36;16.35;;;11.65;;
70342;SDS011;57767;42.068;24.752;2023-12-29T05:12:37;17.08;;;11.52;;
70342;SDS011;57767;42.068;24.752;2023-12-29T05:13:39;18.77;;;12.50;;
70342;SDS011;57767;42.068;24.752;2023-12-29T05:14:41;17.98;;;12.50;;
70342;SDS011;57767;42.068;24.752;2023-12-29T05:15:42;18.15;;;13.45;;
70342;SDS011;57767;42.068;24.752;2023-12-29T05:16:44;20.45;;;13.43;;
70342;SDS011;57767;42.068;24.752;2023-12-29T05:17:46;19.40;;;14.43;;
70342;SDS011;57767;42.068;24.752;2023-12-29T05:18:49;16.88;;;12.82;;
70342;SDS011;57767;42.068;24.752;2023-12-29T05:19:51;19.50;;;13.55;;
70342;SDS011;57767;42.068;24.752;2023-12-29T05:20:53;19.92;;;13.77;;
70342;SDS011;57767;42.068;24.752;2023-12-29T05:21:55;16.73;;;12.93;;
70342;SDS011;57767;42.068;24.752;2023-12-29T05:22:56;17.70;;;13.40;;
70342;SDS011;57767;42.068;24.752;2023-12-29T05:23:58;20.67;;;13.57;;
70342;SDS011;57767;42.068;24.752;2023-12-29T05:25:00;19.73;;;13.95;;
70342;SDS011;57767;42.068;24.752;2023-12-29T05:26:02;19.40;;;13.35;;
70342;SDS011;57767;42.068;24.752;2023-12-29T05:27:04;19.70;;;13.55;;
70342;SDS011;57767;42.068;24.752;2023-12-29T05:28:05;19.00;;;13.55;;
70342;SDS011;57767;42.068;24.752;2023-12-29T05:29:07;24.10;;;15.73;;
70342;SDS011;57767;42.068;24.752;2023-12-29T05:30:09;24.33;;;15.75;;
70342;SDS011;57767;42.068;24.752;2023-12-29T05:31:11;21.63;;;15.05;;
70342;SDS011;57767;42.068;24.752;2023-12-29T05:32:13;25.27;;;15.13;;
70342;SDS011;57767;42.068;24.752;2023-12-29T05:33:15;21.90;;;14.55;;
70342;SDS011;57767;42.068;24.752;2023-12-29T05:34:16;20.92;;;14.30;;
70342;SDS011;57767;42.068;24.752;2023-12-29T05:35:18;20.85;;;14.45;;
70342;SDS011;57767;42.068;24.752;2023-12-29T05:36:20;24.83;;;14.98;;
70342;SDS011;57767;42.068;24.752;2023-12-29T05:37:22;19.65;;;13.88;;
70342;SDS011;57767;42.068;24.752;2023-12-29T05:38:23;22.52;;;14.18;;
70342;SDS011;57767;42.068;24.752;2023-12-29T05:39:25;23.15;;;14.65;;
70342;SDS011;57767;42.068;24.752;2023-12-29T05:40:27;24.05;;;14.05;;
70342;SDS011;57767;42.068;24.752;2023-12-29T05:41:29;21.65;;;14.95;;
70342;SDS011;57767;42.068;24.752;2023-12-29T05:42:31;21.98;;;15.90;;
70342;SDS011;57767;42.068;24.752;2023-12-29T05:43:33;22.48;;;16.65;;
70342;SDS011;57767;42.068;24.752;2023-12-29T05:44:36;22.33;;;16.33;;
70342;SDS011;57767;42.068;24.752;2023-12-29T05:45:38;23.30;;;17.63;;
70342;SDS011;57767;42.068;24.752;2023-12-29T05:46:39;31.35;;;18.52;;
70342;SDS011;57767;42.068;24.752;2023-12-29T05:47:41;24.33;;;18.10;;
70342;SDS011;57767;42.068;24.752;2023-12-29T05:48:43;25.60;;;18.33;;
70342;SDS011;57767;42.068;24.752;2023-12-29T05:49:45;24.30;;;18.48;;
70342;SDS011;57767;42.068;24.752;2023-12-29T05:50:46;21.88;;;17.02;;
70342;SDS011;57767;42.068;24.752;2023-12-29T05:51:48;20.88;;;15.18;;
70342;SDS011;57767;42.068;24.752;2023-12-29T05:52:50;21.27;;;14.98;;
70342;SDS011;57767;42.068;24.752;2023-12-29T05:53:53;19.30;;;14.60;;
70342;SDS011;57767;42.068;24.752;2023-12-29T05:54:54;16.17;;;13.32;;
70342;SDS011;57767;42.068;24.752;2023-12-29T05:55:56;17.52;;;13.93;;
70342;SDS011;57767;42.068;24.752;2023-12-29T05:56:58;20.42;;;14.85;;
70342;SDS011;57767;42.068;24.752;2023-12-29T05:57:59;23.38;;;16.88;;
70342;SDS011;57767;42.068;24.752;2023-12-29T05:59:02;21.80;;;15.88;;
70342;SDS011;57767;42.068;24.752;2023-12-29T06:00:04;18.75;;;15.07;;
70342;SDS011;57767;42.068;24.752;2023-12-29T06:01:06;20.63;;;15.45;;
70342;SDS011;57767;42.068;24.752;2023-12-29T06:02:07;24.30;;;17.73;;
70342;SDS011;57767;42.068;24.752;2023-12-29T06:03:09;28.17;;;19.20;;
70342;SDS011;57767;42.068;24.752;2023-12-29T06:04:11;25.55;;;17.83;;
70342;SDS011;57767;42.068;24.752;2023-12-29T06:05:13;28.27;;;19.35;;
70342;SDS011;57767;42.068;24.752;2023-12-29T06:06:14;32.00;;;21.98;;
70342;SDS011;57767;42.068;24.752;2023-12-29T06:07:16;33.38;;;22.27;;
70342;SDS011;57767;42.068;24.752;2023-12-29T06:08:18;30.75;;;20.17;;
70342;SDS011;57767;42.068;24.752;2023-12-29T06:09:19;29.33;;;21.20;;